sensor_id;sensor_type;location;lat;lon;timestamp;P1;durP1;ratioP1;P2;durP2;ratioP2
64615;SDS011;51027;42.162;24.754;2023-05-19T00:01:25;9.05;;;3.20;;
64615;SDS011;51027;42.162;24.754;2023-05-19T00:03:53;10.20;;;3.13;;
64615;SDS011;51027;42.162;24.754;2023-05-19T00:06:25;8.65;;;3.20;;
64615;SDS011;51027;42.162;24.754;2023-05-19T00:08:56;12.55;;;3.47;;
64615;SDS011;51027;42.162;24.754;2023-05-19T00:11:32;9.63;;;3.28;;
64615;SDS011;51027;42.162;24.754;2023-05-19T00:14:00;8.30;;;3.10;;
64615;SDS011;51027;42.162;24.754;2023-05-19T00:16:27;12.35;;;3.50;;
64615;SDS011;51027;42.162;24.754;2023-05-19T00:18:54;12.60;;;3.35;;
64615;SDS011;51027;42.162;24.754;2023-05-19T00:21:21;9.60;;;3.55;;
64615;SDS011;51027;42.162;24.754;2023-05-19T00:23:47;8.32;;;3.05;;
64615;SDS011;51027;42.162;24.754;2023-05-19T00:26:12;10.48;;;3.85;;
64615;SDS011;51027;42.162;24.754;2023-05-19T00:28:39;9.40;;;3.38;;
64615;SDS011;51027;42.162;24.754;2023-05-19T00:31:05;11.10;;;3.33;;
64615;SDS011;51027;42.162;24.754;2023-05-19T00:33:30;8.15;;;3.10;;
64615;SDS011;51027;42.162;24.754;2023-05-19T00:35:57;8.85;;;2.85;;
64615;SDS011;51027;42.162;24.754;2023-05-19T00:38:23;9.57;;;3.60;;
64615;SDS011;51027;42.162;24.754;2023-05-19T00:40:48;9.55;;;3.17;;
64615;SDS011;51027;42.162;24.754;2023-05-19T00:43:14;9.93;;;3.38;;
64615;SDS011;51027;42.162;24.754;2023-05-19T00:45:39;9.32;;;3.40;;
64615;SDS011;51027;42.162;24.754;2023-05-19T00:48:05;7.30;;;3.30;;
64615;SDS011;51027;42.162;24.754;2023-05-19T00:50:30;10.82;;;3.47;;
64615;SDS011;51027;42.162;24.754;2023-05-19T00:52:56;8.23;;;3.10;;
64615;SDS011;51027;42.162;24.754;2023-05-19T00:55:22;10.07;;;3.30;;
64615;SDS011;51027;42.162;24.754;2023-05-19T01:00:17;8.98;;;3.10;;
64615;SDS011;51027;42.162;24.754;2023-05-19T01:02:42;7.55;;;3.25;;
64615;SDS011;51027;42.162;24.754;2023-05-19T01:05:08;9.73;;;3.45;;
64615;SDS011;51027;42.162;24.754;2023-05-19T01:07:34;7.97;;;3.20;;
64615;SDS011;51027;42.162;24.754;2023-05-19T01:10:01;10.80;;;3.38;;
64615;SDS011;51027;42.162;24.754;2023-05-19T01:12:26;10.95;;;3.80;;
64615;SDS011;51027;42.162;24.754;2023-05-19T01:14:52;9.40;;;3.60;;
64615;SDS011;51027;42.162;24.754;2023-05-19T01:19:51;9.85;;;3.00;;
64615;SDS011;51027;42.162;24.754;2023-05-19T01:25:23;12.98;;;3.67;;
64615;SDS011;51027;42.162;24.754;2023-05-19T01:31:21;11.43;;;3.72;;
64615;SDS011;51027;42.162;24.754;2023-05-19T01:33:49;9.68;;;3.33;;
64615;SDS011;51027;42.162;24.754;2023-05-19T01:36:17;10.93;;;3.78;;
64615;SDS011;51027;42.162;24.754;2023-05-19T01:38:44;11.27;;;3.40;;
64615;SDS011;51027;42.162;24.754;2023-05-19T01:41:11;16.90;;;3.85;;
64615;SDS011;51027;42.162;24.754;2023-05-19T01:43:38;9.98;;;3.20;;
64615;SDS011;51027;42.162;24.754;2023-05-19T01:46:04;8.02;;;3.40;;
64615;SDS011;51027;42.162;24.754;2023-05-19T01:48:30;7.78;;;3.05;;
64615;SDS011;51027;42.162;24.754;2023-05-19T01:50:57;9.00;;;3.28;;
64615;SDS011;51027;42.162;24.754;2023-05-19T01:53:23;10.07;;;3.45;;
64615;SDS011;51027;42.162;24.754;2023-05-19T01:55:49;11.75;;;3.53;;
64615;SDS011;51027;42.162;24.754;2023-05-19T02:06:45;11.10;;;3.65;;
64615;SDS011;51027;42.162;24.754;2023-05-19T02:12:02;13.43;;;4.00;;
64615;SDS011;51027;42.162;24.754;2023-05-19T02:14:51;11.02;;;3.72;;
64615;SDS011;51027;42.162;24.754;2023-05-19T02:17:29;9.63;;;3.60;;
64615;SDS011;51027;42.162;24.754;2023-05-19T02:19:57;8.18;;;3.30;;
64615;SDS011;51027;42.162;24.754;2023-05-19T02:22:22;10.23;;;3.72;;
64615;SDS011;51027;42.162;24.754;2023-05-19T02:24:48;9.60;;;3.45;;
64615;SDS011;51027;42.162;24.754;2023-05-19T02:27:15;10.40;;;3.60;;
64615;SDS011;51027;42.162;24.754;2023-05-19T02:29:41;12.27;;;4.07;;
64615;SDS011;51027;42.162;24.754;2023-05-19T02:32:06;9.25;;;3.22;;
64615;SDS011;51027;42.162;24.754;2023-05-19T02:34:32;8.60;;;3.53;;
64615;SDS011;51027;42.162;24.754;2023-05-19T02:36:57;12.63;;;3.67;;
64615;SDS011;51027;42.162;24.754;2023-05-19T02:39:23;12.57;;;4.43;;
64615;SDS011;51027;42.162;24.754;2023-05-19T02:41:48;11.85;;;3.75;;
64615;SDS011;51027;42.162;24.754;2023-05-19T02:44:14;8.25;;;3.60;;
64615;SDS011;51027;42.162;24.754;2023-05-19T02:46:39;10.93;;;3.63;;
64615;SDS011;51027;42.162;24.754;2023-05-19T02:49:06;11.07;;;3.80;;
64615;SDS011;51027;42.162;24.754;2023-05-19T02:51:31;11.82;;;3.83;;
64615;SDS011;51027;42.162;24.754;2023-05-19T02:53:57;11.80;;;3.75;;
64615;SDS011;51027;42.162;24.754;2023-05-19T02:56:22;12.18;;;4.18;;
64615;SDS011;51027;42.162;24.754;2023-05-19T02:58:48;13.15;;;3.95;;
64615;SDS011;51027;42.162;24.754;2023-05-19T03:01:13;10.77;;;4.30;;
64615;SDS011;51027;42.162;24.754;2023-05-19T03:03:39;11.93;;;4.10;;
64615;SDS011;51027;42.162;24.754;2023-05-19T03:06:05;9.45;;;3.40;;
64615;SDS011;51027;42.162;24.754;2023-05-19T03:08:32;15.63;;;4.32;;
64615;SDS011;51027;42.162;24.754;2023-05-19T03:10:58;10.32;;;3.95;;
64615;SDS011;51027;42.162;24.754;2023-05-19T03:13:24;14.30;;;4.00;;
64615;SDS011;51027;42.162;24.754;2023-05-19T03:15:50;12.00;;;3.88;;
64615;SDS011;51027;42.162;24.754;2023-05-19T03:18:15;13.43;;;4.63;;
64615;SDS011;51027;42.162;24.754;2023-05-19T03:20:40;14.15;;;4.43;;
64615;SDS011;51027;42.162;24.754;2023-05-19T03:23:08;11.45;;;3.92;;
64615;SDS011;51027;42.162;24.754;2023-05-19T03:25:34;14.02;;;4.25;;
64615;SDS011;51027;42.162;24.754;2023-05-19T03:27:59;11.70;;;4.00;;
64615;SDS011;51027;42.162;24.754;2023-05-19T03:30:25;12.50;;;4.07;;
64615;SDS011;51027;42.162;24.754;2023-05-19T03:32:51;14.90;;;4.43;;
64615;SDS011;51027;42.162;24.754;2023-05-19T03:35:16;15.43;;;4.43;;
64615;SDS011;51027;42.162;24.754;2023-05-19T03:37:42;11.60;;;3.90;;
64615;SDS011;51027;42.162;24.754;2023-05-19T03:40:07;12.57;;;3.90;;
64615;SDS011;51027;42.162;24.754;2023-05-19T03:42:33;10.93;;;3.95;;
64615;SDS011;51027;42.162;24.754;2023-05-19T03:44:58;14.85;;;5.72;;
64615;SDS011;51027;42.162;24.754;2023-05-19T03:47:24;12.25;;;4.32;;
64615;SDS011;51027;42.162;24.754;2023-05-19T03:49:49;12.38;;;4.35;;
64615;SDS011;51027;42.162;24.754;2023-05-19T03:52:14;12.95;;;4.20;;
64615;SDS011;51027;42.162;24.754;2023-05-19T03:54:40;12.18;;;4.07;;
64615;SDS011;51027;42.162;24.754;2023-05-19T03:57:07;11.18;;;3.72;;
64615;SDS011;51027;42.162;24.754;2023-05-19T03:59:35;14.50;;;4.30;;
64615;SDS011;51027;42.162;24.754;2023-05-19T04:02:01;12.23;;;3.97;;
64615;SDS011;51027;42.162;24.754;2023-05-19T04:04:27;13.07;;;4.25;;
64615;SDS011;51027;42.162;24.754;2023-05-19T04:06:53;13.10;;;4.28;;
64615;SDS011;51027;42.162;24.754;2023-05-19T04:09:18;13.40;;;4.50;;
64615;SDS011;51027;42.162;24.754;2023-05-19T04:11:43;10.63;;;4.00;;
64615;SDS011;51027;42.162;24.754;2023-05-19T04:14:10;13.25;;;4.22;;
64615;SDS011;51027;42.162;24.754;2023-05-19T04:16:35;14.68;;;4.85;;
64615;SDS011;51027;42.162;24.754;2023-05-19T04:19:00;11.07;;;4.22;;
64615;SDS011;51027;42.162;24.754;2023-05-19T04:21:26;12.85;;;4.70;;
64615;SDS011;51027;42.162;24.754;2023-05-19T04:23:51;12.50;;;4.63;;
64615;SDS011;51027;42.162;24.754;2023-05-19T04:26:17;12.40;;;4.40;;
64615;SDS011;51027;42.162;24.754;2023-05-19T04:28:45;14.05;;;4.20;;
64615;SDS011;51027;42.162;24.754;2023-05-19T04:31:12;12.85;;;4.32;;
64615;SDS011;51027;42.162;24.754;2023-05-19T04:33:38;14.75;;;4.80;;
64615;SDS011;51027;42.162;24.754;2023-05-19T04:36:05;13.82;;;4.80;;
64615;SDS011;51027;42.162;24.754;2023-05-19T04:41:10;13.70;;;4.60;;
64615;SDS011;51027;42.162;24.754;2023-05-19T04:43:36;15.13;;;4.80;;
64615;SDS011;51027;42.162;24.754;2023-05-19T04:46:05;13.23;;;4.50;;
64615;SDS011;51027;42.162;24.754;2023-05-19T04:48:32;12.77;;;4.38;;
64615;SDS011;51027;42.162;24.754;2023-05-19T04:50:58;14.23;;;5.05;;
64615;SDS011;51027;42.162;24.754;2023-05-19T04:53:25;15.43;;;5.00;;
64615;SDS011;51027;42.162;24.754;2023-05-19T04:55:52;19.60;;;7.68;;
64615;SDS011;51027;42.162;24.754;2023-05-19T04:58:18;19.45;;;6.65;;
64615;SDS011;51027;42.162;24.754;2023-05-19T05:00:43;13.57;;;5.05;;
64615;SDS011;51027;42.162;24.754;2023-05-19T05:03:09;14.30;;;5.55;;
64615;SDS011;51027;42.162;24.754;2023-05-19T05:05:36;25.88;;;13.48;;
64615;SDS011;51027;42.162;24.754;2023-05-19T05:08:01;18.25;;;5.85;;
64615;SDS011;51027;42.162;24.754;2023-05-19T05:10:27;16.45;;;6.22;;
64615;SDS011;51027;42.162;24.754;2023-05-19T05:12:52;13.70;;;4.53;;
64615;SDS011;51027;42.162;24.754;2023-05-19T05:15:18;12.68;;;4.40;;
64615;SDS011;51027;42.162;24.754;2023-05-19T05:17:44;16.95;;;6.88;;
64615;SDS011;51027;42.162;24.754;2023-05-19T05:20:10;17.33;;;6.93;;
64615;SDS011;51027;42.162;24.754;2023-05-19T05:22:36;15.52;;;4.95;;
64615;SDS011;51027;42.162;24.754;2023-05-19T05:25:02;20.13;;;8.45;;
64615;SDS011;51027;42.162;24.754;2023-05-19T05:27:28;13.40;;;4.88;;
64615;SDS011;51027;42.162;24.754;2023-05-19T05:29:54;14.93;;;5.50;;
64615;SDS011;51027;42.162;24.754;2023-05-19T05:32:20;14.50;;;4.95;;
64615;SDS011;51027;42.162;24.754;2023-05-19T05:34:45;20.88;;;8.23;;
64615;SDS011;51027;42.162;24.754;2023-05-19T05:37:11;14.48;;;5.07;;
64615;SDS011;51027;42.162;24.754;2023-05-19T05:39:36;16.40;;;5.22;;
64615;SDS011;51027;42.162;24.754;2023-05-19T05:42:01;13.05;;;4.88;;
64615;SDS011;51027;42.162;24.754;2023-05-19T05:44:27;14.48;;;5.30;;
64615;SDS011;51027;42.162;24.754;2023-05-19T05:46:52;13.40;;;5.07;;
64615;SDS011;51027;42.162;24.754;2023-05-19T05:49:18;13.38;;;5.38;;
64615;SDS011;51027;42.162;24.754;2023-05-19T05:51:44;15.63;;;6.35;;
64615;SDS011;51027;42.162;24.754;2023-05-19T05:54:10;14.48;;;5.60;;
64615;SDS011;51027;42.162;24.754;2023-05-19T05:56:36;14.25;;;5.05;;
64615;SDS011;51027;42.162;24.754;2023-05-19T05:59:02;14.63;;;5.30;;
64615;SDS011;51027;42.162;24.754;2023-05-19T06:01:28;17.08;;;5.95;;
64615;SDS011;51027;42.162;24.754;2023-05-19T06:03:56;15.57;;;5.93;;
64615;SDS011;51027;42.162;24.754;2023-05-19T06:06:22;14.95;;;5.50;;
64615;SDS011;51027;42.162;24.754;2023-05-19T06:08:47;15.13;;;5.70;;
64615;SDS011;51027;42.162;24.754;2023-05-19T06:11:13;16.02;;;5.60;;
64615;SDS011;51027;42.162;24.754;2023-05-19T06:13:38;15.23;;;4.93;;
64615;SDS011;51027;42.162;24.754;2023-05-19T06:16:07;17.70;;;6.38;;
64615;SDS011;51027;42.162;24.754;2023-05-19T06:18:32;15.52;;;5.90;;
64615;SDS011;51027;42.162;24.754;2023-05-19T06:20:58;14.35;;;5.22;;
64615;SDS011;51027;42.162;24.754;2023-05-19T06:23:23;16.92;;;6.03;;
64615;SDS011;51027;42.162;24.754;2023-05-19T06:25:50;17.83;;;5.60;;
64615;SDS011;51027;42.162;24.754;2023-05-19T06:28:16;20.30;;;6.93;;
64615;SDS011;51027;42.162;24.754;2023-05-19T06:30:42;18.77;;;6.72;;
64615;SDS011;51027;42.162;24.754;2023-05-19T06:33:07;15.25;;;6.60;;
64615;SDS011;51027;42.162;24.754;2023-05-19T06:35:32;16.13;;;6.57;;
64615;SDS011;51027;42.162;24.754;2023-05-19T06:37:58;14.35;;;5.85;;
64615;SDS011;51027;42.162;24.754;2023-05-19T06:40:23;17.92;;;6.55;;
64615;SDS011;51027;42.162;24.754;2023-05-19T06:42:49;17.48;;;6.07;;
64615;SDS011;51027;42.162;24.754;2023-05-19T06:45:14;15.82;;;6.32;;
64615;SDS011;51027;42.162;24.754;2023-05-19T06:47:40;15.50;;;5.97;;
64615;SDS011;51027;42.162;24.754;2023-05-19T06:50:06;16.75;;;6.65;;
64615;SDS011;51027;42.162;24.754;2023-05-19T06:52:33;15.85;;;6.50;;
64615;SDS011;51027;42.162;24.754;2023-05-19T06:54:59;19.23;;;7.43;;
64615;SDS011;51027;42.162;24.754;2023-05-19T06:57:25;17.45;;;6.65;;
64615;SDS011;51027;42.162;24.754;2023-05-19T06:59:50;16.13;;;6.20;;
64615;SDS011;51027;42.162;24.754;2023-05-19T07:02:15;16.83;;;6.90;;
64615;SDS011;51027;42.162;24.754;2023-05-19T07:04:41;16.23;;;6.60;;
64615;SDS011;51027;42.162;24.754;2023-05-19T07:07:07;15.57;;;6.38;;
64615;SDS011;51027;42.162;24.754;2023-05-19T07:09:32;15.60;;;6.10;;
64615;SDS011;51027;42.162;24.754;2023-05-19T07:11:58;17.38;;;6.72;;
64615;SDS011;51027;42.162;24.754;2023-05-19T07:14:23;16.33;;;7.07;;
64615;SDS011;51027;42.162;24.754;2023-05-19T07:16:49;16.38;;;6.70;;
64615;SDS011;51027;42.162;24.754;2023-05-19T07:19:14;17.55;;;7.32;;
64615;SDS011;51027;42.162;24.754;2023-05-19T07:21:40;17.58;;;6.97;;
64615;SDS011;51027;42.162;24.754;2023-05-19T07:24:06;17.77;;;7.03;;
64615;SDS011;51027;42.162;24.754;2023-05-19T07:26:32;16.75;;;6.75;;
64615;SDS011;51027;42.162;24.754;2023-05-19T07:28:57;17.50;;;7.40;;
64615;SDS011;51027;42.162;24.754;2023-05-19T07:31:22;18.27;;;6.82;;
64615;SDS011;51027;42.162;24.754;2023-05-19T07:33:48;17.85;;;7.53;;
64615;SDS011;51027;42.162;24.754;2023-05-19T07:36:13;17.23;;;7.15;;
64615;SDS011;51027;42.162;24.754;2023-05-19T07:38:39;16.80;;;7.43;;
64615;SDS011;51027;42.162;24.754;2023-05-19T07:41:04;18.73;;;7.35;;
64615;SDS011;51027;42.162;24.754;2023-05-19T07:43:29;18.20;;;8.18;;
64615;SDS011;51027;42.162;24.754;2023-05-19T07:45:55;16.90;;;7.35;;
64615;SDS011;51027;42.162;24.754;2023-05-19T07:48:21;17.65;;;7.50;;
64615;SDS011;51027;42.162;24.754;2023-05-19T07:50:48;18.13;;;8.07;;
64615;SDS011;51027;42.162;24.754;2023-05-19T07:53:15;18.92;;;7.53;;
64615;SDS011;51027;42.162;24.754;2023-05-19T07:55:40;18.40;;;7.60;;
64615;SDS011;51027;42.162;24.754;2023-05-19T07:58:06;18.30;;;8.02;;
64615;SDS011;51027;42.162;24.754;2023-05-19T08:00:31;16.58;;;8.25;;
64615;SDS011;51027;42.162;24.754;2023-05-19T08:02:57;16.60;;;7.10;;
64615;SDS011;51027;42.162;24.754;2023-05-19T08:05:22;18.45;;;7.95;;
64615;SDS011;51027;42.162;24.754;2023-05-19T08:07:49;17.67;;;7.50;;
64615;SDS011;51027;42.162;24.754;2023-05-19T08:10:14;17.30;;;7.60;;
64615;SDS011;51027;42.162;24.754;2023-05-19T08:12:40;17.55;;;7.28;;
64615;SDS011;51027;42.162;24.754;2023-05-19T08:15:05;16.92;;;7.20;;
64615;SDS011;51027;42.162;24.754;2023-05-19T08:17:31;18.00;;;7.95;;
64615;SDS011;51027;42.162;24.754;2023-05-19T08:19:57;18.35;;;7.28;;
64615;SDS011;51027;42.162;24.754;2023-05-19T08:22:22;16.83;;;6.47;;
64615;SDS011;51027;42.162;24.754;2023-05-19T08:24:48;19.13;;;8.57;;
64615;SDS011;51027;42.162;24.754;2023-05-19T08:27:16;18.00;;;8.48;;
64615;SDS011;51027;42.162;24.754;2023-05-19T08:29:41;18.75;;;7.88;;
64615;SDS011;51027;42.162;24.754;2023-05-19T08:32:07;24.48;;;9.40;;
64615;SDS011;51027;42.162;24.754;2023-05-19T08:34:32;18.55;;;7.30;;
64615;SDS011;51027;42.162;24.754;2023-05-19T08:36:58;17.85;;;7.00;;
64615;SDS011;51027;42.162;24.754;2023-05-19T08:39:23;18.00;;;7.47;;
64615;SDS011;51027;42.162;24.754;2023-05-19T08:41:51;20.27;;;7.93;;
64615;SDS011;51027;42.162;24.754;2023-05-19T08:44:18;21.77;;;8.50;;
64615;SDS011;51027;42.162;24.754;2023-05-19T08:46:43;19.05;;;8.50;;
64615;SDS011;51027;42.162;24.754;2023-05-19T08:49:10;18.00;;;7.95;;
64615;SDS011;51027;42.162;24.754;2023-05-19T08:51:38;19.65;;;8.90;;
64615;SDS011;51027;42.162;24.754;2023-05-19T08:54:27;20.50;;;8.32;;
64615;SDS011;51027;42.162;24.754;2023-05-19T08:56:58;19.05;;;8.10;;
64615;SDS011;51027;42.162;24.754;2023-05-19T08:59:24;17.70;;;7.97;;
64615;SDS011;51027;42.162;24.754;2023-05-19T09:01:50;18.55;;;8.40;;
64615;SDS011;51027;42.162;24.754;2023-05-19T09:04:18;16.92;;;8.00;;
64615;SDS011;51027;42.162;24.754;2023-05-19T09:06:44;20.90;;;8.95;;
64615;SDS011;51027;42.162;24.754;2023-05-19T09:09:10;19.30;;;9.40;;
64615;SDS011;51027;42.162;24.754;2023-05-19T09:11:35;19.77;;;9.00;;
64615;SDS011;51027;42.162;24.754;2023-05-19T09:14:02;19.27;;;8.50;;
64615;SDS011;51027;42.162;24.754;2023-05-19T09:16:28;19.85;;;9.43;;
64615;SDS011;51027;42.162;24.754;2023-05-19T09:18:55;18.55;;;8.30;;
64615;SDS011;51027;42.162;24.754;2023-05-19T09:21:30;19.27;;;8.43;;
64615;SDS011;51027;42.162;24.754;2023-05-19T09:23:56;19.80;;;9.27;;
64615;SDS011;51027;42.162;24.754;2023-05-19T09:26:38;19.15;;;8.70;;
64615;SDS011;51027;42.162;24.754;2023-05-19T09:29:11;18.88;;;8.93;;
64615;SDS011;51027;42.162;24.754;2023-05-19T09:34:13;20.25;;;9.35;;
64615;SDS011;51027;42.162;24.754;2023-05-19T09:36:39;19.48;;;9.27;;
64615;SDS011;51027;42.162;24.754;2023-05-19T09:39:12;18.05;;;9.13;;
64615;SDS011;51027;42.162;24.754;2023-05-19T09:41:38;18.92;;;9.52;;
64615;SDS011;51027;42.162;24.754;2023-05-19T09:44:04;18.13;;;8.90;;
64615;SDS011;51027;42.162;24.754;2023-05-19T09:46:31;20.40;;;8.85;;
64615;SDS011;51027;42.162;24.754;2023-05-19T09:48:59;18.10;;;8.68;;
64615;SDS011;51027;42.162;24.754;2023-05-19T09:51:32;20.05;;;8.95;;
64615;SDS011;51027;42.162;24.754;2023-05-19T09:54:00;20.42;;;9.35;;
64615;SDS011;51027;42.162;24.754;2023-05-19T09:56:30;19.75;;;9.20;;
64615;SDS011;51027;42.162;24.754;2023-05-19T09:58:58;20.88;;;10.15;;
64615;SDS011;51027;42.162;24.754;2023-05-19T10:01:23;24.23;;;9.70;;
64615;SDS011;51027;42.162;24.754;2023-05-19T10:03:49;20.95;;;9.57;;
64615;SDS011;51027;42.162;24.754;2023-05-19T10:06:16;23.95;;;9.85;;
64615;SDS011;51027;42.162;24.754;2023-05-19T10:08:42;19.98;;;9.35;;
64615;SDS011;51027;42.162;24.754;2023-05-19T10:11:08;19.77;;;9.63;;
64615;SDS011;51027;42.162;24.754;2023-05-19T10:13:35;18.90;;;9.60;;
64615;SDS011;51027;42.162;24.754;2023-05-19T10:16:02;19.83;;;9.57;;
64615;SDS011;51027;42.162;24.754;2023-05-19T10:18:27;19.42;;;9.18;;
64615;SDS011;51027;42.162;24.754;2023-05-19T10:20:54;22.67;;;9.68;;
64615;SDS011;51027;42.162;24.754;2023-05-19T10:23:21;20.90;;;10.02;;
64615;SDS011;51027;42.162;24.754;2023-05-19T10:25:48;20.60;;;10.35;;
64615;SDS011;51027;42.162;24.754;2023-05-19T10:28:18;21.23;;;10.20;;
64615;SDS011;51027;42.162;24.754;2023-05-19T10:33:15;21.40;;;9.43;;
64615;SDS011;51027;42.162;24.754;2023-05-19T10:35:53;22.05;;;9.55;;
64615;SDS011;51027;42.162;24.754;2023-05-19T10:38:51;20.05;;;9.30;;
64615;SDS011;51027;42.162;24.754;2023-05-19T10:44:08;18.02;;;8.70;;
64615;SDS011;51027;42.162;24.754;2023-05-19T10:46:42;19.13;;;10.02;;
64615;SDS011;51027;42.162;24.754;2023-05-19T10:49:07;19.67;;;9.63;;
64615;SDS011;51027;42.162;24.754;2023-05-19T10:51:33;23.05;;;9.38;;
64615;SDS011;51027;42.162;24.754;2023-05-19T10:54:01;20.00;;;9.52;;
64615;SDS011;51027;42.162;24.754;2023-05-19T10:56:29;21.38;;;10.45;;
64615;SDS011;51027;42.162;24.754;2023-05-19T10:58:57;19.50;;;9.80;;
64615;SDS011;51027;42.162;24.754;2023-05-19T11:01:28;19.05;;;9.93;;
64615;SDS011;51027;42.162;24.754;2023-05-19T11:04:04;19.77;;;10.05;;
64615;SDS011;51027;42.162;24.754;2023-05-19T11:06:32;21.45;;;10.32;;
64615;SDS011;51027;42.162;24.754;2023-05-19T11:09:01;18.80;;;10.05;;
64615;SDS011;51027;42.162;24.754;2023-05-19T11:14:10;20.35;;;9.60;;
64615;SDS011;51027;42.162;24.754;2023-05-19T11:16:40;20.02;;;9.73;;
64615;SDS011;51027;42.162;24.754;2023-05-19T11:19:07;22.98;;;9.75;;
64615;SDS011;51027;42.162;24.754;2023-05-19T11:24:53;18.05;;;7.82;;
64615;SDS011;51027;42.162;24.754;2023-05-19T11:29:50;18.67;;;7.47;;
64615;SDS011;51027;42.162;24.754;2023-05-19T11:32:18;17.15;;;7.70;;
64615;SDS011;51027;42.162;24.754;2023-05-19T11:34:45;18.02;;;7.30;;
64615;SDS011;51027;42.162;24.754;2023-05-19T11:37:12;17.30;;;7.28;;
64615;SDS011;51027;42.162;24.754;2023-05-19T11:39:38;18.70;;;7.03;;
64615;SDS011;51027;42.162;24.754;2023-05-19T11:42:04;16.88;;;6.90;;
64615;SDS011;51027;42.162;24.754;2023-05-19T11:44:29;18.60;;;7.60;;
64615;SDS011;51027;42.162;24.754;2023-05-19T11:46:56;18.40;;;7.28;;
64615;SDS011;51027;42.162;24.754;2023-05-19T11:49:22;17.83;;;7.28;;
64615;SDS011;51027;42.162;24.754;2023-05-19T11:51:48;17.60;;;7.53;;
64615;SDS011;51027;42.162;24.754;2023-05-19T11:54:13;17.40;;;7.78;;
64615;SDS011;51027;42.162;24.754;2023-05-19T11:56:42;18.88;;;8.13;;
64615;SDS011;51027;42.162;24.754;2023-05-19T11:59:08;18.05;;;7.93;;
64615;SDS011;51027;42.162;24.754;2023-05-19T12:01:34;18.10;;;8.18;;
64615;SDS011;51027;42.162;24.754;2023-05-19T12:04:00;20.75;;;8.85;;
64615;SDS011;51027;42.162;24.754;2023-05-19T12:06:26;19.23;;;8.65;;
64615;SDS011;51027;42.162;24.754;2023-05-19T12:08:55;18.95;;;9.13;;
64615;SDS011;51027;42.162;24.754;2023-05-19T12:11:21;19.80;;;9.52;;
64615;SDS011;51027;42.162;24.754;2023-05-19T12:13:48;18.50;;;8.23;;
64615;SDS011;51027;42.162;24.754;2023-05-19T12:16:14;17.80;;;8.57;;
64615;SDS011;51027;42.162;24.754;2023-05-19T12:18:43;20.60;;;9.02;;
64615;SDS011;51027;42.162;24.754;2023-05-19T12:21:09;18.75;;;9.10;;
64615;SDS011;51027;42.162;24.754;2023-05-19T12:23:34;19.80;;;8.70;;
64615;SDS011;51027;42.162;24.754;2023-05-19T12:26:00;18.83;;;8.98;;
64615;SDS011;51027;42.162;24.754;2023-05-19T12:28:28;20.25;;;8.57;;
64615;SDS011;51027;42.162;24.754;2023-05-19T12:30:55;20.67;;;9.07;;
64615;SDS011;51027;42.162;24.754;2023-05-19T12:33:22;16.38;;;7.72;;
64615;SDS011;51027;42.162;24.754;2023-05-19T12:35:48;17.55;;;7.75;;
64615;SDS011;51027;42.162;24.754;2023-05-19T12:38:14;18.13;;;8.23;;
64615;SDS011;51027;42.162;24.754;2023-05-19T12:40:40;16.48;;;7.00;;
64615;SDS011;51027;42.162;24.754;2023-05-19T12:43:07;17.98;;;7.75;;
64615;SDS011;51027;42.162;24.754;2023-05-19T12:45:34;19.83;;;8.05;;
64615;SDS011;51027;42.162;24.754;2023-05-19T12:48:03;20.40;;;8.55;;
64615;SDS011;51027;42.162;24.754;2023-05-19T12:50:40;18.33;;;8.13;;
64615;SDS011;51027;42.162;24.754;2023-05-19T12:53:12;18.30;;;8.35;;
64615;SDS011;51027;42.162;24.754;2023-05-19T12:55:39;18.60;;;8.18;;
64615;SDS011;51027;42.162;24.754;2023-05-19T13:00:38;16.83;;;7.93;;
64615;SDS011;51027;42.162;24.754;2023-05-19T13:03:05;18.73;;;8.23;;
64615;SDS011;51027;42.162;24.754;2023-05-19T13:08:06;18.42;;;8.13;;
64615;SDS011;51027;42.162;24.754;2023-05-19T13:10:33;18.85;;;8.65;;
64615;SDS011;51027;42.162;24.754;2023-05-19T13:13:00;18.45;;;8.40;;
64615;SDS011;51027;42.162;24.754;2023-05-19T13:15:27;17.63;;;7.93;;
64615;SDS011;51027;42.162;24.754;2023-05-19T13:17:55;33.17;;;11.60;;
64615;SDS011;51027;42.162;24.754;2023-05-19T13:20:21;20.98;;;8.88;;
64615;SDS011;51027;42.162;24.754;2023-05-19T13:22:47;19.83;;;9.27;;
64615;SDS011;51027;42.162;24.754;2023-05-19T13:25:13;17.67;;;8.48;;
64615;SDS011;51027;42.162;24.754;2023-05-19T13:27:39;20.85;;;8.02;;
64615;SDS011;51027;42.162;24.754;2023-05-19T13:30:04;19.98;;;8.52;;
64615;SDS011;51027;42.162;24.754;2023-05-19T13:32:31;19.15;;;8.63;;
64615;SDS011;51027;42.162;24.754;2023-05-19T13:34:56;17.73;;;8.45;;
64615;SDS011;51027;42.162;24.754;2023-05-19T13:37:22;18.65;;;8.30;;
64615;SDS011;51027;42.162;24.754;2023-05-19T13:39:48;19.20;;;7.72;;
64615;SDS011;51027;42.162;24.754;2023-05-19T13:42:13;18.92;;;8.32;;
64615;SDS011;51027;42.162;24.754;2023-05-19T13:44:38;18.27;;;8.23;;
64615;SDS011;51027;42.162;24.754;2023-05-19T13:47:04;17.58;;;7.82;;
64615;SDS011;51027;42.162;24.754;2023-05-19T13:49:29;19.80;;;8.80;;
64615;SDS011;51027;42.162;24.754;2023-05-19T13:51:55;20.88;;;8.25;;
64615;SDS011;51027;42.162;24.754;2023-05-19T13:54:24;19.98;;;9.20;;
64615;SDS011;51027;42.162;24.754;2023-05-19T13:56:49;18.30;;;7.93;;
64615;SDS011;51027;42.162;24.754;2023-05-19T13:59:15;19.98;;;9.27;;
64615;SDS011;51027;42.162;24.754;2023-05-19T14:01:45;19.95;;;8.90;;
64615;SDS011;51027;42.162;24.754;2023-05-19T14:04:11;19.90;;;9.13;;
64615;SDS011;51027;42.162;24.754;2023-05-19T14:06:36;19.90;;;9.07;;
64615;SDS011;51027;42.162;24.754;2023-05-19T14:09:02;20.27;;;8.98;;
64615;SDS011;51027;42.162;24.754;2023-05-19T14:11:28;21.70;;;8.82;;
64615;SDS011;51027;42.162;24.754;2023-05-19T14:13:53;20.63;;;9.05;;
64615;SDS011;51027;42.162;24.754;2023-05-19T14:16:20;18.40;;;8.75;;
64615;SDS011;51027;42.162;24.754;2023-05-19T14:18:46;18.67;;;8.10;;
64615;SDS011;51027;42.162;24.754;2023-05-19T14:21:12;18.17;;;7.72;;
64615;SDS011;51027;42.162;24.754;2023-05-19T14:23:38;17.45;;;6.70;;
64615;SDS011;51027;42.162;24.754;2023-05-19T14:26:04;15.23;;;5.97;;
64615;SDS011;51027;42.162;24.754;2023-05-19T14:28:29;20.08;;;7.22;;
64615;SDS011;51027;42.162;24.754;2023-05-19T14:30:55;18.33;;;6.50;;
64615;SDS011;51027;42.162;24.754;2023-05-19T14:33:20;16.42;;;6.90;;
64615;SDS011;51027;42.162;24.754;2023-05-19T14:35:46;17.60;;;6.60;;
64615;SDS011;51027;42.162;24.754;2023-05-19T14:38:12;16.60;;;6.47;;
64615;SDS011;51027;42.162;24.754;2023-05-19T14:40:38;18.38;;;7.53;;
64615;SDS011;51027;42.162;24.754;2023-05-19T14:43:05;15.57;;;6.40;;
64615;SDS011;51027;42.162;24.754;2023-05-19T14:45:31;16.05;;;6.70;;
64615;SDS011;51027;42.162;24.754;2023-05-19T14:47:57;18.63;;;7.30;;
64615;SDS011;51027;42.162;24.754;2023-05-19T14:50:23;16.35;;;6.90;;
64615;SDS011;51027;42.162;24.754;2023-05-19T14:52:49;16.08;;;5.72;;
64615;SDS011;51027;42.162;24.754;2023-05-19T14:55:15;17.27;;;6.22;;
64615;SDS011;51027;42.162;24.754;2023-05-19T14:57:40;15.68;;;5.95;;
64615;SDS011;51027;42.162;24.754;2023-05-19T15:00:06;16.80;;;6.28;;
64615;SDS011;51027;42.162;24.754;2023-05-19T15:02:34;17.20;;;6.82;;
64615;SDS011;51027;42.162;24.754;2023-05-19T15:04:59;16.67;;;7.20;;
64615;SDS011;51027;42.162;24.754;2023-05-19T15:07:25;19.95;;;7.72;;